createdAt,value
2018-02-25T00:01:28.096Z,54.00
2018-02-25T00:03:56.355Z,54.60
2018-02-25T00:06:24.577Z,54.20
2018-02-25T00:08:53.933Z,53.90
2018-02-25T00:11:22.188Z,54.20
2018-02-25T00:13:50.404Z,54.00
2018-02-25T00:16:20.128Z,54.50
2018-02-25T00:18:49.176Z,55.00
2018-02-25T00:21:18.200Z,54.30
2018-02-25T00:26:16.317Z,54.20
2018-02-25T00:28:45.304Z,54.50
2018-02-25T00:31:13.521Z,54.40
2018-02-25T00:33:41.788Z,54.50
2018-02-25T00:36:10.768Z,54.70
2018-02-25T00:38:38.983Z,54.70
2018-02-25T00:43:38.199Z,55.10
2018-02-25T00:46:06.416Z,54.40
2018-02-25T00:48:35.556Z,54.50
2018-02-25T00:51:04.545Z,55.00
2018-02-25T00:53:32.776Z,55.10
2018-02-25T00:56:01.810Z,55.20
2018-02-25T00:58:30.461Z,55.50
2018-02-25T01:00:58.688Z,54.80
2018-02-25T01:03:28.105Z,54.90
2018-02-25T01:05:56.316Z,55.30
2018-02-25T01:08:25.304Z,55.30
2018-02-25T01:10:53.569Z,54.70
2018-02-25T01:13:22.547Z,54.90
2018-02-25T01:15:50.763Z,55.20
2018-02-25T01:18:19.785Z,55.80
2018-02-25T01:23:17.476Z,54.90
2018-02-25T01:25:45.740Z,55.00
2018-02-25T01:28:13.964Z,55.20
2018-02-25T01:30:43.319Z,55.40
2018-02-25T01:35:42.151Z,55.50
2018-02-25T01:38:10.371Z,55.30
2018-02-25T01:40:38.624Z,55.30
2018-02-25T01:43:06.840Z,55.30
2018-02-25T01:45:35.060Z,55.60
2018-02-25T01:48:04.095Z,55.70
2018-02-25T01:50:44.103Z,55.80
2018-02-25T01:53:13.128Z,56.10
2018-02-25T01:58:10.794Z,55.80
2018-02-25T02:00:39.048Z,56.00
2018-02-25T02:03:08.769Z,55.70
2018-02-25T02:05:36.996Z,56.10
2018-02-25T02:08:05.252Z,55.90
2018-02-25T02:10:33.467Z,55.70
2018-02-25T02:13:01.701Z,55.90
2018-02-25T02:15:29.972Z,55.80
2018-02-25T02:17:58.196Z,55.90
2018-02-25T02:20:26.412Z,55.70
2018-02-25T02:22:56.739Z,55.70
2018-02-25T02:25:25.736Z,55.90
2018-02-25T02:27:53.952Z,55.60
2018-02-25T02:35:21.108Z,56.00
2018-02-25T02:37:50.496Z,56.30
2018-02-25T02:40:18.714Z,55.60
2018-02-25T02:42:46.943Z,56.00
2018-02-25T02:45:16.762Z,56.00
2018-02-25T02:47:45.711Z,56.10
2018-02-25T02:52:43.413Z,56.50
2018-02-25T02:55:12.031Z,56.70
2018-02-25T02:57:41.384Z,56.50
2018-02-25T03:00:09.649Z,56.50
2018-02-25T03:02:37.873Z,56.80
2018-02-25T03:05:07.592Z,57.10
2018-02-25T03:07:36.632Z,57.40
2018-02-25T03:12:34.302Z,57.10
2018-02-25T03:15:02.573Z,57.00
2018-02-25T03:17:30.798Z,57.20
2018-02-25T03:19:59.022Z,57.70
2018-02-25T03:22:27.296Z,57.20
2018-02-25T03:24:55.515Z,57.30
2018-02-25T03:27:24.512Z,57.20
2018-02-25T03:29:52.771Z,57.70
2018-02-25T03:32:21.747Z,58.00
2018-02-25T03:34:49.968Z,57.90
2018-02-25T03:37:19.728Z,57.90
2018-02-25T03:39:49.084Z,57.60
2018-02-25T03:42:17.312Z,57.40
2018-02-25T03:44:45.589Z,57.70
2018-02-25T03:47:13.806Z,57.70
2018-02-25T03:49:42.020Z,57.80
2018-02-25T03:52:10.768Z,57.50
2018-02-25T03:54:39.748Z,58.50
2018-02-25T03:57:07.968Z,58.10
2018-02-25T03:59:36.391Z,58.10
2018-02-25T04:02:05.004Z,58.10
2018-02-25T04:04:34.364Z,57.90
2018-02-25T04:07:02.648Z,58.20
2018-02-25T04:09:30.889Z,58.00
2018-02-25T04:11:59.128Z,58.10
2018-02-25T04:14:28.912Z,58.30
2018-02-25T04:16:57.920Z,57.90
2018-02-25T04:19:26.148Z,58.30
2018-02-25T04:21:55.188Z,58.20
2018-02-25T04:24:23.417Z,58.00
2018-02-25T04:26:52.406Z,58.90
2018-02-25T04:29:20.690Z,58.60
2018-02-25T04:31:49.668Z,58.00
2018-02-25T04:34:17.898Z,58.70
2018-02-25T04:36:46.173Z,58.90
2018-02-25T04:39:14.388Z,58.90
2018-02-25T04:41:42.616Z,58.70
2018-02-25T04:44:10.872Z,58.40
2018-02-25T04:46:39.092Z,59.10
2018-02-25T04:49:07.317Z,58.70
2018-02-25T04:51:35.578Z,58.20
2018-02-25T04:54:03.795Z,58.30
2018-02-25T04:56:32.799Z,58.50
2018-02-25T04:59:01.079Z,58.40
2018-02-25T05:01:30.084Z,58.90
2018-02-25T05:03:59.074Z,57.90
2018-02-25T05:06:27.356Z,58.40
2018-02-25T05:08:56.299Z,58.30
2018-02-25T05:11:26.031Z,58.80
2018-02-25T05:13:54.291Z,58.30
2018-02-25T05:16:22.512Z,58.40
2018-02-25T05:18:50.732Z,58.00
2018-02-25T05:21:18.987Z,58.60
2018-02-25T05:23:48.012Z,58.50
2018-02-25T05:26:16.233Z,58.30
2018-02-25T05:28:44.489Z,58.20
2018-02-25T05:31:12.749Z,58.10
2018-02-25T05:33:40.976Z,58.20
2018-02-25T05:36:10.760Z,58.20
2018-02-25T05:38:38.988Z,58.10
2018-02-25T05:41:07.242Z,57.90
2018-02-25T05:43:36.528Z,58.50
2018-02-25T05:46:04.749Z,58.40
2018-02-25T05:48:33.373Z,58.20
2018-02-25T05:51:04.145Z,58.50
2018-02-25T05:53:32.368Z,57.90
2018-02-25T05:56:01.356Z,58.30
2018-02-25T05:58:29.616Z,58.30
2018-02-25T06:00:57.853Z,58.30
2018-02-25T06:03:26.076Z,58.70
2018-02-25T06:05:54.340Z,58.80
2018-02-25T06:10:52.021Z,58.10
2018-02-25T06:13:20.277Z,58.60
2018-02-25T06:15:49.267Z,58.90
2018-02-25T06:18:17.537Z,58.40
2018-02-25T06:20:46.533Z,58.80
2018-02-25T06:23:14.760Z,59.20
2018-02-25T06:28:13.254Z,59.00
2018-02-25T06:30:43.004Z,59.10
2018-02-25T06:33:12.333Z,59.50
2018-02-25T06:35:40.966Z,59.70
2018-02-25T06:38:09.200Z,59.20
2018-02-25T06:40:37.473Z,59.40
2018-02-25T06:43:05.697Z,59.60
2018-02-25T06:45:34.317Z,59.90
2018-02-25T06:48:02.590Z,59.80
2018-02-25T06:50:30.807Z,59.90
2018-02-25T06:52:59.049Z,59.20
2018-02-25T06:55:28.088Z,60.20
2018-02-25T06:57:57.083Z,59.50
2018-02-25T07:00:26.080Z,59.80
2018-02-25T07:02:54.812Z,59.20
2018-02-25T07:05:24.548Z,59.10
2018-02-25T07:07:53.539Z,59.90
2018-02-25T07:10:22.892Z,59.60
2018-02-25T07:12:51.877Z,60.40
2018-02-25T07:15:20.104Z,59.70
2018-02-25T07:17:50.181Z,59.70
2018-02-25T07:20:18.404Z,59.50
2018-02-25T07:22:47.392Z,59.70
2018-02-25T07:25:16.028Z,59.50
2018-02-25T07:27:44.266Z,59.50
2018-02-25T07:35:19.088Z,58.80
2018-02-25T07:37:48.088Z,58.00
2018-02-25T07:42:48.216Z,57.20
2018-02-25T07:45:16.438Z,56.80
2018-02-25T07:47:45.660Z,57.30
2018-02-25T07:50:14.271Z,55.90
2018-02-25T07:52:43.291Z,56.40
2018-02-25T07:55:13.038Z,55.80
2018-02-25T07:57:41.316Z,55.30
2018-02-25T08:00:10.673Z,54.20
2018-02-25T08:02:40.302Z,54.30
2018-02-25T08:05:08.932Z,53.50
2018-02-25T08:07:37.152Z,53.20
2018-02-25T08:10:05.985Z,53.30
2018-02-25T08:12:34.204Z,53.00
2018-02-25T08:15:03.565Z,52.20
2018-02-25T08:17:31.827Z,51.50
2018-02-25T08:20:00.812Z,51.80
2018-02-25T08:22:29.072Z,51.30
2018-02-25T08:24:58.388Z,51.80
2018-02-25T08:27:26.624Z,51.00
2018-02-25T08:29:54.843Z,49.70
2018-02-25T08:34:58.972Z,44.10
2018-02-25T08:37:28.721Z,43.30
2018-02-25T08:39:56.960Z,40.50
2018-02-25T08:42:25.565Z,39.10
2018-02-25T08:44:54.920Z,37.10
2018-02-25T08:47:23.144Z,33.90
2018-02-25T08:49:52.467Z,31.50
2018-02-25T08:52:21.092Z,30.00
2018-02-25T08:54:49.320Z,30.40
2018-02-25T08:57:17.784Z,27.90
2018-02-25T08:59:46.771Z,27.20
2018-02-25T09:02:14.996Z,27.10
2018-02-25T09:04:44.540Z,26.20
2018-02-25T09:09:42.261Z,25.00
2018-02-25T09:12:13.548Z,23.90
2018-02-25T09:14:42.548Z,23.40
2018-02-25T09:17:11.174Z,23.30
2018-02-25T09:24:39.948Z,22.70
2018-02-25T09:27:09.723Z,22.20
2018-02-25T09:29:37.963Z,21.90
2018-02-25T09:32:07.169Z,21.90
2018-02-25T09:34:35.936Z,21.70
2018-02-25T09:39:34.148Z,20.70
2018-02-25T09:45:00.248Z,20.20
2018-02-25T09:47:28.500Z,19.70
2018-02-25T09:49:56.736Z,19.30
2018-02-25T09:52:25.293Z,19.10
2018-02-25T09:54:53.912Z,19.40
2018-02-25T09:57:22.137Z,19.40
2018-02-25T09:59:50.500Z,19.20
2018-02-25T10:02:19.493Z,19.20
2018-02-25T10:04:49.220Z,19.00
2018-02-25T10:09:52.421Z,17.90
2018-02-25T10:12:21.408Z,18.70
2018-02-25T10:14:49.632Z,18.10
2018-02-25T10:17:19.744Z,18.30
2018-02-25T10:19:47.973Z,18.30
2018-02-25T10:22:17.337Z,17.20
2018-02-25T10:24:46.645Z,16.80
2018-02-25T10:27:15.636Z,16.90
2018-02-25T10:29:43.865Z,16.60
2018-02-25T10:32:13.808Z,16.90
2018-02-25T10:34:42.050Z,16.90
2018-02-25T10:37:11.970Z,16.90
2018-02-25T10:39:40.344Z,16.90
2018-02-25T10:42:08.600Z,16.60
2018-02-25T10:44:36.818Z,17.00
2018-02-25T10:47:05.187Z,17.10
2018-02-25T10:49:33.404Z,17.20
2018-02-25T10:52:01.628Z,17.00
2018-02-25T10:54:31.517Z,16.90
2018-02-25T10:56:59.740Z,16.70
2018-02-25T10:59:27.981Z,16.60
2018-02-25T11:01:57.129Z,16.70
2018-02-25T11:04:25.352Z,16.60
2018-02-25T11:06:53.572Z,16.30
2018-02-25T11:09:22.424Z,16.00
2018-02-25T11:11:51.790Z,16.30
2018-02-25T11:14:20.411Z,15.20
2018-02-25T11:16:49.276Z,15.10
2018-02-25T11:19:17.893Z,15.10
2018-02-25T11:29:25.532Z,14.70
2018-02-25T11:31:54.520Z,14.40
2018-02-25T11:34:22.745Z,17.90
2018-02-25T11:36:53.512Z,15.70
2018-02-25T11:39:23.292Z,16.90
2018-02-25T11:41:51.513Z,15.00
2018-02-25T11:44:19.976Z,15.30
2018-02-25T11:46:48.964Z,15.20
2018-02-25T11:49:18.324Z,15.40
2018-02-25T11:51:48.252Z,14.50
2018-02-25T11:56:45.925Z,13.80
2018-02-25T11:59:14.584Z,13.50
2018-02-25T12:01:43.960Z,14.00
2018-02-25T12:04:12.964Z,13.90
2018-02-25T12:06:42.516Z,13.80
2018-02-25T12:09:11.153Z,13.20
2018-02-25T12:11:39.389Z,13.40
2018-02-25T12:14:08.874Z,13.60
2018-02-25T12:16:37.101Z,14.00
2018-02-25T12:19:06.584Z,14.60
2018-02-25T12:21:35.344Z,14.50
2018-02-25T12:24:04.701Z,14.90
2018-02-25T12:26:32.924Z,15.40
2018-02-25T12:29:01.479Z,15.80
2018-02-25T12:31:31.207Z,16.10
2018-02-25T12:34:00.201Z,15.80
2018-02-25T12:36:29.873Z,15.10
2018-02-25T12:38:58.497Z,14.90
2018-02-25T12:41:27.723Z,14.70
2018-02-25T12:43:56.153Z,14.40
2018-02-25T12:46:25.881Z,14.60
2018-02-25T12:48:54.100Z,14.70
2018-02-25T12:51:22.657Z,15.50
2018-02-25T12:53:52.016Z,15.00
2018-02-25T12:59:15.113Z,14.30
2018-02-25T13:01:44.848Z,14.00
2018-02-25T13:04:14.585Z,14.30
2018-02-25T13:06:44.017Z,14.50
2018-02-25T13:09:12.649Z,14.00
2018-02-25T13:11:41.281Z,14.00
2018-02-25T13:14:10.152Z,13.80
2018-02-25T13:16:39.162Z,13.90
2018-02-25T13:19:08.160Z,14.20
2018-02-25T13:21:38.468Z,14.60
2018-02-25T13:24:07.451Z,13.80
2018-02-25T13:26:36.443Z,14.30
2018-02-25T13:29:05.182Z,13.90
2018-02-25T13:31:33.800Z,13.70
2018-02-25T13:36:33.229Z,14.60
2018-02-25T13:41:31.324Z,14.10
2018-02-25T13:44:00.881Z,14.60
2018-02-25T13:46:29.120Z,14.40
2018-02-25T13:48:57.360Z,14.70
2018-02-25T13:51:26.256Z,15.00
2018-02-25T13:57:12.376Z,15.30
2018-02-25T14:02:10.101Z,15.40
2018-02-25T14:04:38.680Z,14.70
2018-02-25T14:07:07.301Z,15.10
2018-02-25T14:09:35.942Z,15.70
2018-02-25T14:12:05.500Z,16.20
2018-02-25T14:14:33.752Z,16.60
2018-02-25T14:17:02.372Z,16.80
2018-02-25T14:19:30.695Z,17.40
2018-02-25T14:21:58.949Z,17.70
2018-02-25T14:24:28.352Z,18.30
2018-02-25T14:37:01.076Z,20.20
2018-02-25T14:41:59.380Z,21.70
2018-02-25T14:46:57.644Z,22.50
2018-02-25T14:51:55.313Z,24.40
2018-02-25T14:54:23.826Z,24.60
2018-02-25T14:56:53.766Z,25.30
2018-02-25T14:59:22.385Z,25.40
2018-02-25T15:01:50.789Z,26.00
2018-02-25T15:04:22.105Z,26.10
2018-02-25T15:06:50.380Z,26.10
2018-02-25T15:09:18.809Z,25.70
2018-02-25T15:11:47.472Z,25.90
2018-02-25T15:14:16.472Z,26.10
2018-02-25T15:16:44.877Z,25.80
2018-02-25T15:19:13.184Z,26.00
2018-02-25T15:21:41.443Z,26.00
2018-02-25T15:24:11.008Z,26.90
2018-02-25T15:26:39.232Z,26.60
2018-02-25T15:29:07.456Z,27.30
2018-02-25T15:31:35.788Z,28.00
2018-02-25T15:34:04.016Z,29.00
2018-02-25T15:36:32.245Z,30.20
2018-02-25T15:41:29.992Z,30.90
2018-02-25T15:43:58.221Z,31.40
2018-02-25T15:46:26.479Z,32.10
2018-02-25T15:48:54.708Z,32.20
2018-02-25T15:51:24.098Z,32.50
2018-02-25T15:53:52.353Z,33.40
2018-02-25T15:56:20.582Z,33.50
2018-02-25T15:58:49.600Z,34.90
2018-02-25T16:01:19.496Z,34.20
2018-02-25T16:03:48.487Z,34.70
2018-02-25T16:06:17.154Z,35.60
2018-02-25T16:08:45.380Z,35.10
2018-02-25T16:11:14.744Z,35.80
2018-02-25T16:13:43.780Z,37.00
2018-02-25T16:23:40.947Z,37.40
2018-02-25T16:28:38.600Z,38.70
2018-02-25T16:31:07.986Z,39.10
2018-02-25T16:33:42.008Z,38.40
2018-02-25T16:36:10.996Z,38.40
2018-02-25T16:38:40.729Z,39.00
2018-02-25T16:46:45.001Z,39.50
2018-02-25T16:49:14.196Z,40.30
2018-02-25T16:51:42.412Z,40.10
2018-02-25T16:54:11.056Z,40.20
2018-02-25T16:59:33.728Z,40.60
2018-02-25T17:04:32.168Z,40.40
2018-02-25T17:09:29.864Z,40.80
2018-02-25T17:11:58.081Z,41.00
2018-02-25T17:14:26.363Z,41.30
2018-02-25T17:16:54.920Z,41.50
2018-02-25T17:19:23.472Z,41.80
2018-02-25T17:24:22.281Z,41.30
2018-02-25T17:29:20.429Z,41.70
2018-02-25T17:31:49.452Z,42.30
2018-02-25T17:34:19.533Z,41.50
2018-02-25T17:36:47.753Z,41.90
2018-02-25T17:39:17.118Z,42.10
2018-02-25T17:41:45.372Z,42.70
2018-02-25T17:44:13.596Z,42.40
2018-02-25T17:46:43.324Z,43.00
2018-02-25T17:49:12.352Z,43.30
2018-02-25T17:51:40.568Z,43.10
2018-02-25T17:54:08.794Z,43.30
2018-02-25T17:56:37.873Z,43.30
2018-02-25T17:59:06.093Z,43.80
2018-02-25T18:01:35.072Z,43.20
2018-02-25T18:04:04.108Z,44.00
2018-02-25T18:09:02.533Z,43.60
2018-02-25T18:11:33.076Z,43.50
2018-02-25T18:14:01.298Z,43.30
2018-02-25T18:16:31.313Z,43.60
2018-02-25T18:21:29.034Z,43.50
2018-02-25T18:26:27.505Z,44.00
2018-02-25T18:28:55.723Z,43.80
2018-02-25T18:31:23.963Z,44.50
2018-02-25T18:33:52.200Z,45.40
2018-02-25T18:38:49.868Z,47.20
2018-02-25T18:41:18.512Z,48.00
2018-02-25T18:43:47.868Z,47.90
2018-02-25T18:46:16.082Z,48.30
2018-02-25T18:48:44.336Z,49.00
2018-02-25T18:51:12.552Z,49.40
2018-02-25T18:53:42.281Z,50.20
2018-02-25T18:56:11.309Z,51.20
2018-02-25T18:58:40.288Z,51.80
2018-02-25T19:01:08.504Z,51.20
2018-02-25T19:03:36.761Z,51.30
2018-02-25T19:06:04.983Z,52.10
2018-02-25T19:08:33.595Z,52.40
2018-02-25T19:11:01.869Z,52.70
2018-02-25T19:13:30.097Z,52.80
2018-02-25T19:15:58.325Z,52.80
2018-02-25T19:18:27.718Z,53.00
2018-02-25T19:20:55.928Z,52.70
2018-02-25T19:23:24.148Z,52.60
2018-02-25T19:25:53.541Z,52.40
2018-02-25T19:30:52.374Z,52.80
2018-02-25T19:33:20.618Z,53.30
2018-02-25T19:38:52.496Z,52.40
2018-02-25T19:41:27.995Z,52.40
2018-02-25T19:43:57.353Z,52.50
2018-02-25T19:46:25.573Z,52.30
2018-02-25T19:48:53.848Z,53.00
2018-02-25T19:51:22.123Z,52.90
2018-02-25T19:53:50.704Z,52.60
2018-02-25T19:58:49.172Z,51.90
2018-02-25T20:01:17.393Z,51.80
2018-02-25T20:03:47.124Z,51.70
2018-02-25T20:06:16.112Z,52.20
2018-02-25T20:08:45.472Z,51.80
2018-02-25T20:11:17.380Z,52.00
2018-02-25T20:13:45.605Z,51.80
2018-02-25T20:16:13.820Z,51.90
2018-02-25T20:21:12.840Z,52.20
2018-02-25T20:23:42.191Z,52.40
2018-02-25T20:26:10.736Z,52.40
2018-02-25T20:28:38.948Z,52.20
2018-02-25T20:31:07.172Z,52.50
2018-02-25T20:33:35.828Z,52.10
2018-02-25T20:36:04.820Z,52.60
2018-02-25T20:38:33.036Z,52.10
2018-02-25T20:43:31.664Z,52.60
2018-02-25T20:46:00.901Z,53.00
2018-02-25T20:48:30.840Z,52.90
2018-02-25T20:53:29.644Z,53.60
2018-02-25T20:55:58.337Z,54.20
2018-02-25T20:58:27.688Z,54.30
2018-02-25T21:00:55.904Z,54.40
2018-02-25T21:03:25.198Z,54.60
2018-02-25T21:05:54.176Z,55.10
2018-02-25T21:08:22.400Z,55.10
2018-02-25T21:10:51.609Z,55.80
2018-02-25T21:15:50.412Z,55.80
2018-02-25T21:18:18.909Z,56.30
2018-02-25T21:20:47.525Z,56.40
2018-02-25T21:28:19.288Z,57.00
2018-02-25T21:30:47.505Z,57.30
2018-02-25T21:33:16.076Z,57.30
2018-02-25T21:35:44.688Z,57.70
2018-02-25T21:38:13.684Z,58.10
2018-02-25T21:40:43.432Z,57.80
2018-02-25T21:43:12.788Z,58.20
2018-02-25T21:45:41.014Z,58.80
2018-02-25T21:48:10.454Z,58.60
2018-02-25T21:50:38.668Z,58.70
2018-02-25T21:55:37.997Z,59.40
2018-02-25T21:58:13.089Z,59.50
2018-02-25T22:00:47.114Z,59.80
2018-02-25T22:03:20.946Z,60.70
2018-02-25T22:05:49.836Z,60.40
2018-02-25T22:08:18.056Z,61.00
2018-02-25T22:10:47.788Z,60.60
2018-02-25T22:13:16.588Z,61.30
2018-02-25T22:15:45.212Z,62.20
2018-02-25T22:18:13.425Z,62.10
2018-02-25T22:20:41.984Z,62.30
2018-02-25T22:25:39.661Z,63.30
2018-02-25T22:28:08.052Z,63.20
2018-02-25T22:30:37.775Z,63.50
2018-02-25T22:33:06.000Z,63.90
2018-02-25T22:35:34.369Z,64.10
2018-02-25T22:38:02.997Z,64.90
2018-02-25T22:40:31.213Z,65.50
2018-02-25T22:42:59.592Z,65.50
2018-02-25T22:45:27.812Z,66.00
2018-02-25T22:50:26.536Z,66.70
2018-02-25T22:52:54.762Z,67.20
2018-02-25T22:55:22.984Z,67.50
2018-02-25T22:57:51.362Z,67.70
2018-02-25T23:00:22.077Z,68.00
2018-02-25T23:02:50.287Z,69.00
2018-02-25T23:05:19.837Z,68.90
2018-02-25T23:07:48.448Z,69.40
2018-02-25T23:10:16.668Z,69.40
2018-02-25T23:12:45.050Z,70.30
2018-02-25T23:15:14.029Z,71.40
2018-02-25T23:17:42.249Z,71.10
2018-02-25T23:20:10.556Z,70.90
2018-02-25T23:22:39.540Z,71.80
2018-02-25T23:25:08.532Z,72.00
2018-02-25T23:27:36.835Z,72.20
2018-02-25T23:30:05.068Z,72.50
2018-02-25T23:32:33.284Z,72.90
2018-02-25T23:37:32.300Z,73.00
2018-02-25T23:40:00.928Z,73.40
2018-02-25T23:42:29.679Z,74.00
2018-02-25T23:47:27.356Z,75.40
2018-02-25T23:49:55.920Z,75.50
2018-02-25T23:52:27.136Z,75.80
2018-02-25T23:54:56.152Z,75.90
2018-02-25T23:57:24.628Z,76.10
2018-02-25T23:59:52.848Z,76.60
